sensor_id;sensor_type;location;lat;lon;timestamp;P1;durP1;ratioP1;P2;durP2;ratioP2
40152;SDS011;26371;56.992;23.912;2022-11-02T00:01:23;79.88;;;22.60;;
40152;SDS011;26371;56.992;23.912;2022-11-02T00:03:53;93.38;;;24.48;;
40152;SDS011;26371;56.992;23.912;2022-11-02T00:06:23;83.35;;;22.67;;
40152;SDS011;26371;56.992;23.912;2022-11-02T00:08:52;95.43;;;23.23;;
40152;SDS011;26371;56.992;23.912;2022-11-02T00:11:21;81.17;;;23.23;;
40152;SDS011;26371;56.992;23.912;2022-11-02T00:13:49;69.27;;;20.23;;
40152;SDS011;26371;56.992;23.912;2022-11-02T00:16:18;86.17;;;24.40;;
40152;SDS011;26371;56.992;23.912;2022-11-02T00:18:50;87.80;;;24.27;;
40152;SDS011;26371;56.992;23.912;2022-11-02T00:21:21;79.05;;;21.70;;
40152;SDS011;26371;56.992;23.912;2022-11-02T00:23:54;80.25;;;21.60;;
40152;SDS011;26371;56.992;23.912;2022-11-02T00:26:24;77.00;;;21.58;;
40152;SDS011;26371;56.992;23.912;2022-11-02T00:28:54;75.20;;;21.95;;
40152;SDS011;26371;56.992;23.912;2022-11-02T00:31:22;86.45;;;24.55;;
40152;SDS011;26371;56.992;23.912;2022-11-02T00:33:51;72.17;;;22.73;;
40152;SDS011;26371;56.992;23.912;2022-11-02T00:36:20;75.70;;;24.30;;
40152;SDS011;26371;56.992;23.912;2022-11-02T00:38:51;81.50;;;23.25;;
40152;SDS011;26371;56.992;23.912;2022-11-02T00:41:20;69.43;;;21.92;;
40152;SDS011;26371;56.992;23.912;2022-11-02T00:43:51;81.55;;;24.48;;
40152;SDS011;26371;56.992;23.912;2022-11-02T00:46:19;72.37;;;22.30;;
40152;SDS011;26371;56.992;23.912;2022-11-02T00:48:48;68.68;;;21.58;;
40152;SDS011;26371;56.992;23.912;2022-11-02T00:51:17;70.50;;;20.88;;
40152;SDS011;26371;56.992;23.912;2022-11-02T00:53:46;75.82;;;22.85;;
40152;SDS011;26371;56.992;23.912;2022-11-02T00:56:16;65.53;;;20.30;;
40152;SDS011;26371;56.992;23.912;2022-11-02T00:58:45;63.58;;;20.35;;
40152;SDS011;26371;56.992;23.912;2022-11-02T01:01:13;56.97;;;18.00;;
40152;SDS011;26371;56.992;23.912;2022-11-02T01:03:42;59.30;;;19.10;;
40152;SDS011;26371;56.992;23.912;2022-11-02T01:06:11;54.13;;;19.60;;
40152;SDS011;26371;56.992;23.912;2022-11-02T01:08:41;62.00;;;19.77;;
40152;SDS011;26371;56.992;23.912;2022-11-02T01:11:11;66.03;;;21.08;;
40152;SDS011;26371;56.992;23.912;2022-11-02T01:13:42;48.03;;;16.88;;
40152;SDS011;26371;56.992;23.912;2022-11-02T01:16:11;48.22;;;17.13;;
40152;SDS011;26371;56.992;23.912;2022-11-02T01:21:09;50.83;;;18.17;;
40152;SDS011;26371;56.992;23.912;2022-11-02T01:23:38;52.50;;;17.67;;
40152;SDS011;26371;56.992;23.912;2022-11-02T01:26:09;49.53;;;17.10;;
40152;SDS011;26371;56.992;23.912;2022-11-02T01:28:39;53.75;;;17.05;;
40152;SDS011;26371;56.992;23.912;2022-11-02T01:33:41;43.30;;;15.70;;
40152;SDS011;26371;56.992;23.912;2022-11-02T01:36:11;44.53;;;16.58;;
40152;SDS011;26371;56.992;23.912;2022-11-02T01:38:41;45.33;;;16.98;;
40152;SDS011;26371;56.992;23.912;2022-11-02T01:41:10;44.00;;;17.10;;
40152;SDS011;26371;56.992;23.912;2022-11-02T01:43:39;41.45;;;16.63;;
40152;SDS011;26371;56.992;23.912;2022-11-02T01:46:14;48.17;;;16.95;;
40152;SDS011;26371;56.992;23.912;2022-11-02T01:48:46;42.75;;;17.00;;
40152;SDS011;26371;56.992;23.912;2022-11-02T01:51:18;42.50;;;16.13;;
40152;SDS011;26371;56.992;23.912;2022-11-02T01:53:49;52.92;;;19.70;;
40152;SDS011;26371;56.992;23.912;2022-11-02T01:56:20;55.33;;;19.83;;
40152;SDS011;26371;56.992;23.912;2022-11-02T01:58:51;47.95;;;19.05;;
40152;SDS011;26371;56.992;23.912;2022-11-02T02:01:26;56.03;;;19.98;;
40152;SDS011;26371;56.992;23.912;2022-11-02T02:03:56;51.95;;;20.25;;
40152;SDS011;26371;56.992;23.912;2022-11-02T02:06:26;51.28;;;20.35;;
40152;SDS011;26371;56.992;23.912;2022-11-02T02:08:54;53.63;;;21.73;;
40152;SDS011;26371;56.992;23.912;2022-11-02T02:11:29;62.05;;;20.90;;
40152;SDS011;26371;56.992;23.912;2022-11-02T02:13:59;54.53;;;21.33;;
40152;SDS011;26371;56.992;23.912;2022-11-02T02:16:45;50.58;;;19.63;;
40152;SDS011;26371;56.992;23.912;2022-11-02T02:19:28;50.70;;;21.35;;
40152;SDS011;26371;56.992;23.912;2022-11-02T02:22:10;54.63;;;20.80;;
40152;SDS011;26371;56.992;23.912;2022-11-02T02:24:50;53.20;;;21.38;;
40152;SDS011;26371;56.992;23.912;2022-11-02T02:27:50;50.30;;;19.58;;
40152;SDS011;26371;56.992;23.912;2022-11-02T02:30:32;58.42;;;24.25;;
40152;SDS011;26371;56.992;23.912;2022-11-02T02:33:05;50.47;;;22.20;;
40152;SDS011;26371;56.992;23.912;2022-11-02T02:35:40;53.85;;;21.27;;
40152;SDS011;26371;56.992;23.912;2022-11-02T02:38:11;47.20;;;21.10;;
40152;SDS011;26371;56.992;23.912;2022-11-02T02:40:46;59.63;;;23.85;;
40152;SDS011;26371;56.992;23.912;2022-11-02T02:43:20;54.22;;;23.45;;
40152;SDS011;26371;56.992;23.912;2022-11-02T02:45:57;52.72;;;22.05;;
40152;SDS011;26371;56.992;23.912;2022-11-02T02:48:30;45.20;;;20.45;;
40152;SDS011;26371;56.992;23.912;2022-11-02T02:51:02;46.78;;;20.55;;
40152;SDS011;26371;56.992;23.912;2022-11-02T02:53:37;39.78;;;19.40;;
40152;SDS011;26371;56.992;23.912;2022-11-02T02:56:09;45.47;;;20.80;;
40152;SDS011;26371;56.992;23.912;2022-11-02T02:58:44;47.28;;;23.02;;
40152;SDS011;26371;56.992;23.912;2022-11-02T03:01:17;41.95;;;21.73;;
40152;SDS011;26371;56.992;23.912;2022-11-02T03:06:16;57.80;;;23.33;;
40152;SDS011;26371;56.992;23.912;2022-11-02T03:08:55;52.10;;;23.73;;
40152;SDS011;26371;56.992;23.912;2022-11-02T03:11:33;49.55;;;22.17;;
40152;SDS011;26371;56.992;23.912;2022-11-02T03:14:10;39.15;;;19.40;;
40152;SDS011;26371;56.992;23.912;2022-11-02T03:16:56;43.58;;;20.48;;
40152;SDS011;26371;56.992;23.912;2022-11-02T03:19:40;42.55;;;21.27;;
40152;SDS011;26371;56.992;23.912;2022-11-02T03:22:19;41.80;;;20.23;;
40152;SDS011;26371;56.992;23.912;2022-11-02T03:24:55;53.00;;;22.77;;
40152;SDS011;26371;56.992;23.912;2022-11-02T03:27:31;48.15;;;21.67;;
40152;SDS011;26371;56.992;23.912;2022-11-02T03:30:08;49.25;;;21.80;;
40152;SDS011;26371;56.992;23.912;2022-11-02T03:32:45;49.85;;;21.83;;
40152;SDS011;26371;56.992;23.912;2022-11-02T03:35:20;47.97;;;21.98;;
40152;SDS011;26371;56.992;23.912;2022-11-02T03:37:54;45.28;;;22.17;;
40152;SDS011;26371;56.992;23.912;2022-11-02T03:40:28;43.75;;;20.52;;
40152;SDS011;26371;56.992;23.912;2022-11-02T03:43:00;47.85;;;20.73;;
40152;SDS011;26371;56.992;23.912;2022-11-02T03:45:34;48.67;;;23.52;;
40152;SDS011;26371;56.992;23.912;2022-11-02T03:48:07;42.30;;;20.33;;
40152;SDS011;26371;56.992;23.912;2022-11-02T03:50:41;40.95;;;19.70;;
40152;SDS011;26371;56.992;23.912;2022-11-02T03:53:14;41.88;;;19.58;;
40152;SDS011;26371;56.992;23.912;2022-11-02T03:55:49;44.45;;;20.85;;
40152;SDS011;26371;56.992;23.912;2022-11-02T03:58:22;41.20;;;22.02;;
40152;SDS011;26371;56.992;23.912;2022-11-02T04:00:53;35.70;;;17.90;;
40152;SDS011;26371;56.992;23.912;2022-11-02T04:03:25;42.03;;;19.75;;
40152;SDS011;26371;56.992;23.912;2022-11-02T04:05:55;39.20;;;18.75;;
40152;SDS011;26371;56.992;23.912;2022-11-02T04:08:30;34.10;;;17.40;;
40152;SDS011;26371;56.992;23.912;2022-11-02T04:11:06;41.25;;;19.63;;
40152;SDS011;26371;56.992;23.912;2022-11-02T04:13:56;34.55;;;18.45;;
40152;SDS011;26371;56.992;23.912;2022-11-02T04:16:45;36.80;;;18.30;;
40152;SDS011;26371;56.992;23.912;2022-11-02T04:19:24;34.50;;;17.40;;
40152;SDS011;26371;56.992;23.912;2022-11-02T04:22:01;34.80;;;18.58;;
40152;SDS011;26371;56.992;23.912;2022-11-02T04:24:51;37.42;;;18.35;;
40152;SDS011;26371;56.992;23.912;2022-11-02T04:27:38;39.55;;;18.95;;
40152;SDS011;26371;56.992;23.912;2022-11-02T04:30:08;41.50;;;19.92;;
40152;SDS011;26371;56.992;23.912;2022-11-02T04:32:40;39.83;;;19.65;;
40152;SDS011;26371;56.992;23.912;2022-11-02T04:35:39;36.08;;;18.75;;
40152;SDS011;26371;56.992;23.912;2022-11-02T04:38:08;37.17;;;18.70;;
40152;SDS011;26371;56.992;23.912;2022-11-02T04:40:58;38.00;;;18.73;;
40152;SDS011;26371;56.992;23.912;2022-11-02T04:43:42;40.58;;;18.73;;
40152;SDS011;26371;56.992;23.912;2022-11-02T04:46:13;43.25;;;20.63;;
40152;SDS011;26371;56.992;23.912;2022-11-02T04:48:44;37.67;;;20.83;;
40152;SDS011;26371;56.992;23.912;2022-11-02T04:51:14;42.17;;;20.33;;
40152;SDS011;26371;56.992;23.912;2022-11-02T04:53:43;37.90;;;18.95;;
40152;SDS011;26371;56.992;23.912;2022-11-02T04:56:11;39.83;;;18.38;;
40152;SDS011;26371;56.992;23.912;2022-11-02T04:58:41;38.80;;;19.15;;
40152;SDS011;26371;56.992;23.912;2022-11-02T05:01:11;40.13;;;20.50;;
40152;SDS011;26371;56.992;23.912;2022-11-02T05:03:42;39.90;;;18.80;;
40152;SDS011;26371;56.992;23.912;2022-11-02T05:06:14;48.58;;;21.98;;
40152;SDS011;26371;56.992;23.912;2022-11-02T05:08:44;45.03;;;21.13;;
40152;SDS011;26371;56.992;23.912;2022-11-02T05:11:13;44.60;;;21.55;;
40152;SDS011;26371;56.992;23.912;2022-11-02T05:13:43;49.70;;;22.90;;
40152;SDS011;26371;56.992;23.912;2022-11-02T05:16:12;46.47;;;21.50;;
40152;SDS011;26371;56.992;23.912;2022-11-02T05:18:43;46.15;;;20.35;;
40152;SDS011;26371;56.992;23.912;2022-11-02T05:21:16;43.05;;;21.13;;
40152;SDS011;26371;56.992;23.912;2022-11-02T05:23:46;50.60;;;23.90;;
40152;SDS011;26371;56.992;23.912;2022-11-02T05:26:16;47.08;;;23.02;;
40152;SDS011;26371;56.992;23.912;2022-11-02T05:28:47;47.03;;;21.27;;
40152;SDS011;26371;56.992;23.912;2022-11-02T05:31:16;44.38;;;21.55;;
40152;SDS011;26371;56.992;23.912;2022-11-02T05:33:46;41.97;;;21.17;;
40152;SDS011;26371;56.992;23.912;2022-11-02T05:36:20;45.67;;;21.83;;
40152;SDS011;26371;56.992;23.912;2022-11-02T05:38:51;43.58;;;20.20;;
40152;SDS011;26371;56.992;23.912;2022-11-02T05:41:20;54.50;;;24.42;;
40152;SDS011;26371;56.992;23.912;2022-11-02T05:43:53;45.17;;;22.08;;
40152;SDS011;26371;56.992;23.912;2022-11-02T05:46:23;46.50;;;23.17;;
40152;SDS011;26371;56.992;23.912;2022-11-02T05:48:52;44.63;;;22.13;;
40152;SDS011;26371;56.992;23.912;2022-11-02T05:51:22;54.53;;;24.17;;
40152;SDS011;26371;56.992;23.912;2022-11-02T05:53:50;53.03;;;23.77;;
40152;SDS011;26371;56.992;23.912;2022-11-02T05:56:19;44.03;;;21.25;;
40152;SDS011;26371;56.992;23.912;2022-11-02T05:58:52;41.28;;;20.73;;
40152;SDS011;26371;56.992;23.912;2022-11-02T06:01:21;45.28;;;21.08;;
40152;SDS011;26371;56.992;23.912;2022-11-02T06:03:50;49.88;;;22.77;;
40152;SDS011;26371;56.992;23.912;2022-11-02T06:06:21;43.45;;;21.30;;
40152;SDS011;26371;56.992;23.912;2022-11-02T06:08:50;51.45;;;22.95;;
40152;SDS011;26371;56.992;23.912;2022-11-02T06:11:19;41.97;;;21.40;;
40152;SDS011;26371;56.992;23.912;2022-11-02T06:13:48;45.05;;;20.90;;
40152;SDS011;26371;56.992;23.912;2022-11-02T06:16:17;54.15;;;25.27;;
40152;SDS011;26371;56.992;23.912;2022-11-02T06:18:49;54.53;;;23.75;;
40152;SDS011;26371;56.992;23.912;2022-11-02T06:21:17;47.78;;;21.67;;
40152;SDS011;26371;56.992;23.912;2022-11-02T06:23:48;48.47;;;23.27;;
40152;SDS011;26371;56.992;23.912;2022-11-02T06:26:17;52.80;;;23.90;;
40152;SDS011;26371;56.992;23.912;2022-11-02T06:28:45;45.07;;;21.30;;
40152;SDS011;26371;56.992;23.912;2022-11-02T06:31:14;44.77;;;21.33;;
40152;SDS011;26371;56.992;23.912;2022-11-02T06:33:43;42.05;;;20.65;;
40152;SDS011;26371;56.992;23.912;2022-11-02T06:36:12;51.97;;;22.40;;
40152;SDS011;26371;56.992;23.912;2022-11-02T06:38:40;51.30;;;23.50;;
40152;SDS011;26371;56.992;23.912;2022-11-02T06:41:13;48.53;;;22.63;;
40152;SDS011;26371;56.992;23.912;2022-11-02T06:43:41;44.40;;;20.83;;
40152;SDS011;26371;56.992;23.912;2022-11-02T06:46:10;40.27;;;19.03;;
40152;SDS011;26371;56.992;23.912;2022-11-02T06:48:39;41.20;;;19.93;;
40152;SDS011;26371;56.992;23.912;2022-11-02T06:51:07;53.13;;;23.77;;
40152;SDS011;26371;56.992;23.912;2022-11-02T06:53:36;44.37;;;20.60;;
40152;SDS011;26371;56.992;23.912;2022-11-02T06:56:05;46.03;;;21.20;;
40152;SDS011;26371;56.992;23.912;2022-11-02T06:58:35;51.10;;;24.27;;
40152;SDS011;26371;56.992;23.912;2022-11-02T07:01:04;44.35;;;22.02;;
40152;SDS011;26371;56.992;23.912;2022-11-02T07:03:35;45.97;;;23.42;;
40152;SDS011;26371;56.992;23.912;2022-11-02T07:06:03;49.40;;;23.53;;
40152;SDS011;26371;56.992;23.912;2022-11-02T07:08:39;49.97;;;22.35;;
40152;SDS011;26371;56.992;23.912;2022-11-02T07:11:11;38.78;;;19.08;;
40152;SDS011;26371;56.992;23.912;2022-11-02T07:13:42;47.08;;;22.55;;
40152;SDS011;26371;56.992;23.912;2022-11-02T07:16:11;48.08;;;22.20;;
40152;SDS011;26371;56.992;23.912;2022-11-02T07:18:40;40.58;;;21.42;;
40152;SDS011;26371;56.992;23.912;2022-11-02T07:21:11;49.88;;;22.77;;
40152;SDS011;26371;56.992;23.912;2022-11-02T07:23:40;45.25;;;21.85;;
40152;SDS011;26371;56.992;23.912;2022-11-02T07:26:08;50.30;;;24.07;;
40152;SDS011;26371;56.992;23.912;2022-11-02T07:28:37;51.43;;;24.20;;
40152;SDS011;26371;56.992;23.912;2022-11-02T07:31:07;47.50;;;22.67;;
40152;SDS011;26371;56.992;23.912;2022-11-02T07:33:36;44.63;;;21.35;;
40152;SDS011;26371;56.992;23.912;2022-11-02T07:36:05;40.42;;;20.30;;
40152;SDS011;26371;56.992;23.912;2022-11-02T07:38:34;44.10;;;22.10;;
40152;SDS011;26371;56.992;23.912;2022-11-02T07:41:02;46.33;;;21.63;;
40152;SDS011;26371;56.992;23.912;2022-11-02T07:43:31;43.22;;;21.65;;
40152;SDS011;26371;56.992;23.912;2022-11-02T07:46:14;43.20;;;23.13;;
40152;SDS011;26371;56.992;23.912;2022-11-02T07:48:43;46.70;;;24.67;;
40152;SDS011;26371;56.992;23.912;2022-11-02T07:51:13;47.53;;;24.77;;
40152;SDS011;26371;56.992;23.912;2022-11-02T07:53:41;42.38;;;22.50;;
40152;SDS011;26371;56.992;23.912;2022-11-02T07:56:10;50.70;;;25.53;;
40152;SDS011;26371;56.992;23.912;2022-11-02T07:58:39;47.17;;;23.50;;
40152;SDS011;26371;56.992;23.912;2022-11-02T08:01:07;38.50;;;19.77;;
40152;SDS011;26371;56.992;23.912;2022-11-02T08:03:38;45.65;;;23.25;;
40152;SDS011;26371;56.992;23.912;2022-11-02T08:06:07;46.08;;;23.05;;
40152;SDS011;26371;56.992;23.912;2022-11-02T08:08:37;41.95;;;22.40;;
40152;SDS011;26371;56.992;23.912;2022-11-02T08:11:07;40.80;;;21.80;;
40152;SDS011;26371;56.992;23.912;2022-11-02T08:13:37;39.92;;;21.98;;
40152;SDS011;26371;56.992;23.912;2022-11-02T08:16:06;39.40;;;21.20;;
40152;SDS011;26371;56.992;23.912;2022-11-02T08:18:34;45.05;;;21.88;;
40152;SDS011;26371;56.992;23.912;2022-11-02T08:21:05;44.90;;;21.58;;
40152;SDS011;26371;56.992;23.912;2022-11-02T08:23:33;42.10;;;22.17;;
40152;SDS011;26371;56.992;23.912;2022-11-02T08:26:02;43.80;;;24.55;;
40152;SDS011;26371;56.992;23.912;2022-11-02T08:28:31;44.67;;;23.33;;
40152;SDS011;26371;56.992;23.912;2022-11-02T08:31:01;44.35;;;23.17;;
40152;SDS011;26371;56.992;23.912;2022-11-02T08:33:30;52.95;;;25.80;;
40152;SDS011;26371;56.992;23.912;2022-11-02T08:36:00;43.23;;;22.13;;
40152;SDS011;26371;56.992;23.912;2022-11-02T08:38:31;47.47;;;22.40;;
40152;SDS011;26371;56.992;23.912;2022-11-02T08:41:00;44.03;;;22.38;;
40152;SDS011;26371;56.992;23.912;2022-11-02T08:43:29;54.50;;;24.80;;
40152;SDS011;26371;56.992;23.912;2022-11-02T08:45:58;43.50;;;21.42;;
40152;SDS011;26371;56.992;23.912;2022-11-02T08:48:44;47.03;;;23.33;;
40152;SDS011;26371;56.992;23.912;2022-11-02T08:51:12;50.38;;;23.08;;
40152;SDS011;26371;56.992;23.912;2022-11-02T08:53:43;40.40;;;20.55;;
40152;SDS011;26371;56.992;23.912;2022-11-02T08:56:17;41.97;;;19.98;;
40152;SDS011;26371;56.992;23.912;2022-11-02T08:58:46;34.50;;;17.47;;
40152;SDS011;26371;56.992;23.912;2022-11-02T09:01:14;38.70;;;18.90;;
40152;SDS011;26371;56.992;23.912;2022-11-02T09:03:43;45.05;;;20.75;;
40152;SDS011;26371;56.992;23.912;2022-11-02T09:06:11;40.80;;;19.00;;
40152;SDS011;26371;56.992;23.912;2022-11-02T09:08:40;34.50;;;18.00;;
40152;SDS011;26371;56.992;23.912;2022-11-02T09:11:10;36.47;;;17.25;;
40152;SDS011;26371;56.992;23.912;2022-11-02T09:13:39;33.78;;;16.50;;
40152;SDS011;26371;56.992;23.912;2022-11-02T09:16:08;34.57;;;17.43;;
40152;SDS011;26371;56.992;23.912;2022-11-02T09:18:36;36.60;;;16.97;;
40152;SDS011;26371;56.992;23.912;2022-11-02T09:21:05;34.88;;;16.77;;
40152;SDS011;26371;56.992;23.912;2022-11-02T09:23:33;33.03;;;15.57;;
40152;SDS011;26371;56.992;23.912;2022-11-02T09:26:02;29.52;;;15.88;;
40152;SDS011;26371;56.992;23.912;2022-11-02T09:28:32;33.93;;;16.60;;
40152;SDS011;26371;56.992;23.912;2022-11-02T09:31:02;34.33;;;16.65;;
40152;SDS011;26371;56.992;23.912;2022-11-02T09:33:37;39.15;;;20.55;;
40152;SDS011;26371;56.992;23.912;2022-11-02T09:36:07;34.53;;;16.25;;
40152;SDS011;26371;56.992;23.912;2022-11-02T09:38:36;38.33;;;17.27;;
40152;SDS011;26371;56.992;23.912;2022-11-02T09:41:09;52.20;;;26.67;;
40152;SDS011;26371;56.992;23.912;2022-11-02T09:43:49;36.45;;;18.30;;
40152;SDS011;26371;56.992;23.912;2022-11-02T09:46:24;36.20;;;16.63;;
40152;SDS011;26371;56.992;23.912;2022-11-02T09:48:57;34.65;;;16.17;;
40152;SDS011;26371;56.992;23.912;2022-11-02T09:51:31;37.63;;;17.88;;
40152;SDS011;26371;56.992;23.912;2022-11-02T09:54:05;35.35;;;17.17;;
40152;SDS011;26371;56.992;23.912;2022-11-02T09:56:43;34.75;;;15.73;;
40152;SDS011;26371;56.992;23.912;2022-11-02T10:01:54;26.90;;;12.90;;
40152;SDS011;26371;56.992;23.912;2022-11-02T10:07:33;26.05;;;12.77;;
40152;SDS011;26371;56.992;23.912;2022-11-02T10:10:11;24.48;;;12.13;;
40152;SDS011;26371;56.992;23.912;2022-11-02T10:12:45;22.60;;;11.80;;
40152;SDS011;26371;56.992;23.912;2022-11-02T10:15:27;21.58;;;10.55;;
40152;SDS011;26371;56.992;23.912;2022-11-02T10:18:03;22.90;;;11.00;;
40152;SDS011;26371;56.992;23.912;2022-11-02T10:20:33;22.50;;;10.95;;
40152;SDS011;26371;56.992;23.912;2022-11-02T10:23:07;23.77;;;10.93;;
40152;SDS011;26371;56.992;23.912;2022-11-02T10:25:42;20.70;;;11.00;;
40152;SDS011;26371;56.992;23.912;2022-11-02T10:28:13;22.98;;;10.95;;
40152;SDS011;26371;56.992;23.912;2022-11-02T10:30:46;20.70;;;10.18;;
40152;SDS011;26371;56.992;23.912;2022-11-02T10:33:17;20.80;;;10.15;;
40152;SDS011;26371;56.992;23.912;2022-11-02T10:35:56;20.42;;;10.60;;
40152;SDS011;26371;56.992;23.912;2022-11-02T10:38:49;21.05;;;11.02;;
40152;SDS011;26371;56.992;23.912;2022-11-02T10:41:36;21.98;;;11.02;;
40152;SDS011;26371;56.992;23.912;2022-11-02T10:44:25;20.00;;;10.10;;
40152;SDS011;26371;56.992;23.912;2022-11-02T10:47:08;20.77;;;10.73;;
40152;SDS011;26371;56.992;23.912;2022-11-02T10:52:41;25.65;;;11.30;;
40152;SDS011;26371;56.992;23.912;2022-11-02T10:55:16;20.30;;;10.63;;
40152;SDS011;26371;56.992;23.912;2022-11-02T10:57:48;19.52;;;9.75;;
40152;SDS011;26371;56.992;23.912;2022-11-02T11:00:27;21.95;;;10.30;;
40152;SDS011;26371;56.992;23.912;2022-11-02T11:03:06;20.00;;;10.23;;
40152;SDS011;26371;56.992;23.912;2022-11-02T11:05:38;22.27;;;10.27;;
40152;SDS011;26371;56.992;23.912;2022-11-02T11:08:25;19.17;;;10.23;;
40152;SDS011;26371;56.992;23.912;2022-11-02T11:11:09;16.90;;;8.50;;
40152;SDS011;26371;56.992;23.912;2022-11-02T11:13:54;17.48;;;9.52;;
40152;SDS011;26371;56.992;23.912;2022-11-02T11:16:46;16.50;;;8.38;;
40152;SDS011;26371;56.992;23.912;2022-11-02T11:19:22;18.00;;;9.70;;
40152;SDS011;26371;56.992;23.912;2022-11-02T11:22:22;18.27;;;9.77;;
40152;SDS011;26371;56.992;23.912;2022-11-02T11:25:18;15.30;;;9.20;;
40152;SDS011;26371;56.992;23.912;2022-11-02T11:27:53;17.52;;;10.25;;
40152;SDS011;26371;56.992;23.912;2022-11-02T11:30:25;18.75;;;9.77;;
40152;SDS011;26371;56.992;23.912;2022-11-02T11:33:16;13.35;;;8.15;;
40152;SDS011;26371;56.992;23.912;2022-11-02T11:35:48;13.93;;;8.05;;
40152;SDS011;26371;56.992;23.912;2022-11-02T11:38:18;17.02;;;9.20;;
40152;SDS011;26371;56.992;23.912;2022-11-02T11:40:52;13.32;;;8.48;;
40152;SDS011;26371;56.992;23.912;2022-11-02T11:43:24;14.43;;;8.32;;
40152;SDS011;26371;56.992;23.912;2022-11-02T11:45:56;15.98;;;8.43;;
40152;SDS011;26371;56.992;23.912;2022-11-02T11:48:33;14.57;;;8.77;;
40152;SDS011;26371;56.992;23.912;2022-11-02T11:51:23;14.43;;;8.55;;
40152;SDS011;26371;56.992;23.912;2022-11-02T11:54:08;16.25;;;10.50;;
40152;SDS011;26371;56.992;23.912;2022-11-02T11:56:47;14.25;;;8.40;;
40152;SDS011;26371;56.992;23.912;2022-11-02T11:59:24;13.05;;;7.53;;
40152;SDS011;26371;56.992;23.912;2022-11-02T12:01:58;14.18;;;8.20;;
40152;SDS011;26371;56.992;23.912;2022-11-02T12:04:30;14.52;;;8.13;;
40152;SDS011;26371;56.992;23.912;2022-11-02T12:07:06;14.23;;;9.38;;
40152;SDS011;26371;56.992;23.912;2022-11-02T12:09:48;13.00;;;8.07;;
40152;SDS011;26371;56.992;23.912;2022-11-02T12:12:29;12.13;;;6.55;;
40152;SDS011;26371;56.992;23.912;2022-11-02T12:15:13;13.75;;;6.75;;
40152;SDS011;26371;56.992;23.912;2022-11-02T12:17:53;12.82;;;7.35;;
40152;SDS011;26371;56.992;23.912;2022-11-02T12:20:38;12.75;;;6.70;;
40152;SDS011;26371;56.992;23.912;2022-11-02T12:23:30;15.02;;;7.95;;
40152;SDS011;26371;56.992;23.912;2022-11-02T12:26:16;21.67;;;14.90;;
40152;SDS011;26371;56.992;23.912;2022-11-02T12:28:57;16.73;;;11.05;;
40152;SDS011;26371;56.992;23.912;2022-11-02T12:31:34;22.10;;;11.98;;
40152;SDS011;26371;56.992;23.912;2022-11-02T12:34:12;16.67;;;9.65;;
40152;SDS011;26371;56.992;23.912;2022-11-02T12:36:58;21.05;;;11.05;;
40152;SDS011;26371;56.992;23.912;2022-11-02T12:40:03;14.40;;;8.38;;
40152;SDS011;26371;56.992;23.912;2022-11-02T12:42:45;17.58;;;9.45;;
40152;SDS011;26371;56.992;23.912;2022-11-02T12:45:24;17.95;;;8.77;;
40152;SDS011;26371;56.992;23.912;2022-11-02T12:48:03;16.45;;;8.32;;
40152;SDS011;26371;56.992;23.912;2022-11-02T12:50:39;14.80;;;8.30;;
40152;SDS011;26371;56.992;23.912;2022-11-02T12:56:17;16.97;;;10.20;;
40152;SDS011;26371;56.992;23.912;2022-11-02T12:58:49;16.70;;;10.18;;
40152;SDS011;26371;56.992;23.912;2022-11-02T13:01:21;14.18;;;9.00;;
40152;SDS011;26371;56.992;23.912;2022-11-02T13:03:54;12.25;;;7.75;;
40152;SDS011;26371;56.992;23.912;2022-11-02T13:06:29;14.65;;;8.15;;
40152;SDS011;26371;56.992;23.912;2022-11-02T13:09:03;12.43;;;7.53;;
40152;SDS011;26371;56.992;23.912;2022-11-02T13:11:36;13.00;;;7.70;;
40152;SDS011;26371;56.992;23.912;2022-11-02T13:14:11;11.98;;;6.75;;
40152;SDS011;26371;56.992;23.912;2022-11-02T13:16:45;12.85;;;6.72;;
40152;SDS011;26371;56.992;23.912;2022-11-02T13:19:19;13.27;;;8.07;;
40152;SDS011;26371;56.992;23.912;2022-11-02T13:21:53;13.40;;;8.75;;
40152;SDS011;26371;56.992;23.912;2022-11-02T13:24:26;13.32;;;7.50;;
40152;SDS011;26371;56.992;23.912;2022-11-02T13:27:01;12.60;;;7.05;;
40152;SDS011;26371;56.992;23.912;2022-11-02T13:29:53;10.63;;;7.00;;
40152;SDS011;26371;56.992;23.912;2022-11-02T13:32:27;11.00;;;6.38;;
40152;SDS011;26371;56.992;23.912;2022-11-02T13:35:02;10.70;;;6.75;;
40152;SDS011;26371;56.992;23.912;2022-11-02T13:37:38;10.18;;;6.75;;
40152;SDS011;26371;56.992;23.912;2022-11-02T13:40:12;15.02;;;9.40;;
40152;SDS011;26371;56.992;23.912;2022-11-02T13:46:06;11.38;;;6.22;;
40152;SDS011;26371;56.992;23.912;2022-11-02T13:48:59;10.07;;;6.10;;
40152;SDS011;26371;56.992;23.912;2022-11-02T13:51:33;10.57;;;6.15;;
40152;SDS011;26371;56.992;23.912;2022-11-02T13:54:06;10.82;;;6.38;;
40152;SDS011;26371;56.992;23.912;2022-11-02T13:56:39;10.50;;;6.53;;
40152;SDS011;26371;56.992;23.912;2022-11-02T14:01:47;9.90;;;6.25;;
40152;SDS011;26371;56.992;23.912;2022-11-02T14:04:21;9.43;;;5.57;;
40152;SDS011;26371;56.992;23.912;2022-11-02T14:06:52;9.60;;;5.88;;
40152;SDS011;26371;56.992;23.912;2022-11-02T14:09:31;10.80;;;6.20;;
40152;SDS011;26371;56.992;23.912;2022-11-02T14:12:10;11.20;;;6.40;;
40152;SDS011;26371;56.992;23.912;2022-11-02T14:18:17;9.80;;;5.05;;
40152;SDS011;26371;56.992;23.912;2022-11-02T14:20:57;8.20;;;4.75;;
40152;SDS011;26371;56.992;23.912;2022-11-02T14:23:49;11.60;;;5.85;;
40152;SDS011;26371;56.992;23.912;2022-11-02T14:26:28;9.57;;;6.28;;
40152;SDS011;26371;56.992;23.912;2022-11-02T14:29:02;8.68;;;5.22;;
40152;SDS011;26371;56.992;23.912;2022-11-02T14:31:59;9.38;;;5.50;;
40152;SDS011;26371;56.992;23.912;2022-11-02T14:34:36;9.73;;;5.57;;
40152;SDS011;26371;56.992;23.912;2022-11-02T14:37:28;10.48;;;6.65;;
40152;SDS011;26371;56.992;23.912;2022-11-02T14:40:15;9.45;;;5.28;;
40152;SDS011;26371;56.992;23.912;2022-11-02T14:43:05;8.52;;;5.60;;
40152;SDS011;26371;56.992;23.912;2022-11-02T14:45:57;9.93;;;5.90;;
40152;SDS011;26371;56.992;23.912;2022-11-02T14:51:15;9.13;;;5.45;;
40152;SDS011;26371;56.992;23.912;2022-11-02T14:53:47;10.23;;;5.80;;
40152;SDS011;26371;56.992;23.912;2022-11-02T14:56:22;10.32;;;5.63;;
40152;SDS011;26371;56.992;23.912;2022-11-02T14:58:53;8.65;;;5.40;;
40152;SDS011;26371;56.992;23.912;2022-11-02T15:01:24;7.72;;;4.88;;
40152;SDS011;26371;56.992;23.912;2022-11-02T15:03:54;9.47;;;5.37;;
40152;SDS011;26371;56.992;23.912;2022-11-02T15:06:22;11.23;;;6.15;;
40152;SDS011;26371;56.992;23.912;2022-11-02T15:08:54;9.43;;;5.53;;
40152;SDS011;26371;56.992;23.912;2022-11-02T15:11:42;7.95;;;4.97;;
40152;SDS011;26371;56.992;23.912;2022-11-02T15:20:29;10.07;;;6.30;;
40152;SDS011;26371;56.992;23.912;2022-11-02T15:23:02;9.43;;;6.18;;
40152;SDS011;26371;56.992;23.912;2022-11-02T15:25:55;12.88;;;7.53;;
40152;SDS011;26371;56.992;23.912;2022-11-02T15:28:27;11.70;;;7.15;;
40152;SDS011;26371;56.992;23.912;2022-11-02T15:31:00;13.30;;;6.97;;